createdAt,value
2023-03-30T00:00:18.640Z,5.87
2023-03-30T00:02:49.260Z,5.73
2023-03-30T00:05:19.178Z,5.80
2023-03-30T00:07:48.029Z,5.37
2023-03-30T00:10:19.097Z,5.33
2023-03-30T00:12:48.584Z,5.30
2023-03-30T00:15:17.853Z,5.37
2023-03-30T00:17:46.659Z,5.70
2023-03-30T00:20:15.671Z,5.70
2023-03-30T00:22:44.761Z,5.57
2023-03-30T00:25:14.513Z,4.60
2023-03-30T00:27:44.437Z,5.03
2023-03-30T00:30:15.262Z,4.77
2023-03-30T00:32:43.352Z,5.17
2023-03-30T00:35:12.372Z,4.97
2023-03-30T00:37:40.651Z,4.97
2023-03-30T00:40:11.375Z,5.13
2023-03-30T00:42:39.688Z,4.73
2023-03-30T00:45:19.194Z,4.97
2023-03-30T00:47:51.648Z,5.33
2023-03-30T00:50:22.975Z,4.70
2023-03-30T00:52:53.606Z,4.90
2023-03-30T00:55:23.354Z,5.37
2023-03-30T00:57:52.522Z,4.83
2023-03-30T01:00:23.948Z,5.20
2023-03-30T01:02:57.410Z,4.70
2023-03-30T01:05:26.400Z,5.27
2023-03-30T01:07:54.497Z,4.63
2023-03-30T01:10:22.586Z,4.63
2023-03-30T01:12:50.960Z,4.27
2023-03-30T01:15:19.037Z,4.97
2023-03-30T01:18:00.741Z,4.33
2023-03-30T01:20:55.213Z,4.60
2023-03-30T01:23:57.314Z,4.33
2023-03-30T01:26:44.959Z,3.90
2023-03-30T01:29:20.952Z,4.20
2023-03-30T01:32:28.586Z,4.40
2023-03-30T01:35:19.445Z,4.03
2023-03-30T01:38:39.497Z,3.63
2023-03-30T01:41:14.191Z,3.90
2023-03-30T01:43:49.962Z,3.83
2023-03-30T01:46:25.391Z,3.97
2023-03-30T01:49:03.083Z,4.17
2023-03-30T01:51:36.642Z,3.70
2023-03-30T01:54:09.940Z,3.77
2023-03-30T01:56:44.420Z,4.10
2023-03-30T01:59:17.597Z,4.30
2023-03-30T02:01:50.262Z,4.20
2023-03-30T02:04:22.909Z,4.07
2023-03-30T02:06:57.899Z,3.90
2023-03-30T02:09:27.432Z,4.37
2023-03-30T02:11:57.584Z,4.00
2023-03-30T02:14:29.834Z,4.20
2023-03-30T02:17:02.652Z,4.07
2023-03-30T02:19:31.852Z,4.37
2023-03-30T02:22:00.187Z,4.13
2023-03-30T02:24:31.693Z,3.93
2023-03-30T02:27:02.544Z,4.07
2023-03-30T02:29:32.187Z,4.00
2023-03-30T02:32:01.019Z,3.93
2023-03-30T02:34:47.786Z,3.90
2023-03-30T02:37:33.816Z,3.90
2023-03-30T02:40:19.452Z,4.20
2023-03-30T02:43:21.003Z,4.70
2023-03-30T02:45:54.972Z,4.40
2023-03-30T02:48:34.611Z,3.53
2023-03-30T02:51:15.100Z,3.63
2023-03-30T02:53:49.317Z,4.07
2023-03-30T02:56:24.961Z,3.70
2023-03-30T02:58:57.721Z,4.00
2023-03-30T03:01:33.822Z,4.20
2023-03-30T03:04:04.592Z,4.23
2023-03-30T03:06:33.288Z,3.90
2023-03-30T03:09:01.728Z,3.47
2023-03-30T03:11:29.688Z,3.60
2023-03-30T03:13:59.365Z,3.80
2023-03-30T03:16:27.444Z,3.80
2023-03-30T03:18:55.409Z,3.30
2023-03-30T03:21:23.490Z,3.50
2023-03-30T03:23:51.549Z,3.83
2023-03-30T03:26:19.983Z,3.30
2023-03-30T03:28:47.979Z,3.67
2023-03-30T03:31:17.409Z,3.83
2023-03-30T03:33:45.418Z,3.83
2023-03-30T03:36:13.432Z,3.40
2023-03-30T03:38:41.426Z,3.53
2023-03-30T03:41:09.950Z,3.50
2023-03-30T03:43:37.913Z,3.63
2023-03-30T03:46:06.202Z,3.40
2023-03-30T03:48:35.691Z,3.73
2023-03-30T03:51:03.992Z,3.47
2023-03-30T03:53:32.607Z,3.70
2023-03-30T03:56:00.656Z,3.80
2023-03-30T03:58:29.101Z,3.70
2023-03-30T04:01:00.250Z,3.77
2023-03-30T04:03:28.982Z,4.30
2023-03-30T04:06:01.309Z,3.90
2023-03-30T04:08:29.639Z,3.60
2023-03-30T04:10:57.710Z,3.63
2023-03-30T04:13:25.759Z,4.00
2023-03-30T04:15:53.756Z,4.20
2023-03-30T04:18:22.210Z,4.23
2023-03-30T04:20:50.713Z,4.73
2023-03-30T04:23:21.959Z,4.87
2023-03-30T04:25:51.848Z,4.80
2023-03-30T04:28:22.094Z,4.93
2023-03-30T04:30:50.666Z,4.00
2023-03-30T04:33:19.307Z,4.80
2023-03-30T04:35:47.475Z,4.90
2023-03-30T04:38:22.552Z,4.90
2023-03-30T04:40:52.957Z,5.37
2023-03-30T04:43:22.131Z,4.67
2023-03-30T04:45:51.858Z,5.50
2023-03-30T04:48:20.699Z,5.30
2023-03-30T04:50:50.372Z,5.23
2023-03-30T04:53:19.953Z,5.13
2023-03-30T04:55:51.962Z,5.33
2023-03-30T04:58:19.952Z,5.57
2023-03-30T05:00:48.040Z,5.80
2023-03-30T05:03:16.266Z,5.90
2023-03-30T05:05:44.465Z,5.70
2023-03-30T05:08:12.468Z,5.73
2023-03-30T05:10:40.410Z,4.97
2023-03-30T05:13:09.731Z,5.33
2023-03-30T05:15:37.728Z,5.30
2023-03-30T05:18:05.830Z,6.03
2023-03-30T05:20:34.256Z,5.87
2023-03-30T05:23:02.191Z,6.23
2023-03-30T05:25:30.158Z,6.40
2023-03-30T05:27:58.147Z,5.60
2023-03-30T05:30:27.524Z,5.60
2023-03-30T05:32:55.977Z,5.23
2023-03-30T05:35:23.986Z,5.33
2023-03-30T05:37:54.296Z,5.77
2023-03-30T05:40:22.321Z,5.70
2023-03-30T05:42:50.324Z,6.50
2023-03-30T05:45:18.463Z,5.43
2023-03-30T05:47:47.886Z,5.97
2023-03-30T05:50:16.019Z,5.63
2023-03-30T05:52:44.039Z,5.90
2023-03-30T05:55:12.083Z,6.13
2023-03-30T05:57:40.246Z,7.23
2023-03-30T06:00:10.293Z,6.57
2023-03-30T06:02:38.418Z,6.17
2023-03-30T06:05:08.498Z,5.80
2023-03-30T06:07:37.511Z,6.07
2023-03-30T06:10:06.484Z,5.73
2023-03-30T06:12:35.424Z,5.50
2023-03-30T06:15:03.496Z,6.30
2023-03-30T06:17:31.662Z,6.20
2023-03-30T06:19:59.976Z,5.83
2023-03-30T06:22:31.396Z,5.63
2023-03-30T06:25:00.210Z,6.03
2023-03-30T06:27:31.290Z,6.10
2023-03-30T06:29:59.320Z,6.23
2023-03-30T06:32:27.447Z,6.30
2023-03-30T06:34:55.755Z,6.97
2023-03-30T06:37:23.710Z,6.47
2023-03-30T06:39:53.565Z,6.17
2023-03-30T06:42:21.920Z,6.20
2023-03-30T06:44:50.077Z,7.87
2023-03-30T06:47:19.351Z,8.17
2023-03-30T06:49:48.400Z,8.23
2023-03-30T06:52:16.804Z,8.67
2023-03-30T06:54:44.795Z,7.37
2023-03-30T06:57:14.461Z,8.97
2023-03-30T06:59:42.486Z,6.70
2023-03-30T07:02:14.433Z,5.83
2023-03-30T07:04:42.910Z,6.63
2023-03-30T07:07:10.988Z,5.57
2023-03-30T07:09:39.001Z,5.57
2023-03-30T07:12:07.429Z,5.63
2023-03-30T07:14:37.348Z,5.43
2023-03-30T07:17:05.384Z,5.43
2023-03-30T07:19:33.420Z,4.63
2023-03-30T07:22:02.054Z,5.10
2023-03-30T07:24:31.262Z,5.07
2023-03-30T07:26:59.258Z,5.13
2023-03-30T07:29:28.870Z,4.77
2023-03-30T07:31:58.311Z,5.30
2023-03-30T07:34:26.337Z,5.10
2023-03-30T07:36:54.846Z,5.57
2023-03-30T07:39:23.001Z,5.30
2023-03-30T07:41:50.969Z,5.30
2023-03-30T07:44:18.970Z,4.77
2023-03-30T07:46:47.720Z,5.87
2023-03-30T07:49:17.109Z,4.93
2023-03-30T07:51:45.259Z,5.30
2023-03-30T07:54:13.248Z,5.17
2023-03-30T07:56:43.006Z,4.10
2023-03-30T07:59:12.659Z,4.43
2023-03-30T08:01:40.770Z,4.23
2023-03-30T08:04:08.818Z,4.07
2023-03-30T08:06:38.292Z,3.33
2023-03-30T08:09:06.389Z,3.80
2023-03-30T08:11:36.014Z,4.00
2023-03-30T08:14:04.221Z,4.17
2023-03-30T08:16:32.754Z,3.10
2023-03-30T08:19:00.805Z,3.50
2023-03-30T08:21:28.781Z,3.90
2023-03-30T08:23:59.170Z,3.10
2023-03-30T08:26:28.258Z,3.03
2023-03-30T08:28:56.337Z,3.43
2023-03-30T08:31:24.378Z,2.90
2023-03-30T08:33:52.388Z,3.17
2023-03-30T08:36:21.366Z,2.60
2023-03-30T08:38:49.423Z,3.10
2023-03-30T08:41:48.131Z,2.20
2023-03-30T08:44:23.320Z,2.37
2023-03-30T08:46:52.045Z,2.20
2023-03-30T08:49:21.184Z,2.47
2023-03-30T08:51:51.877Z,2.20
2023-03-30T08:54:22.385Z,2.77
2023-03-30T08:57:00.670Z,2.20
2023-03-30T08:59:36.330Z,1.80
2023-03-30T09:02:14.862Z,2.53
2023-03-30T09:04:57.681Z,2.30
2023-03-30T09:07:28.652Z,2.70
2023-03-30T09:09:58.414Z,2.37
2023-03-30T09:12:38.297Z,2.83
2023-03-30T09:15:11.723Z,2.63
2023-03-30T09:17:44.116Z,2.30
2023-03-30T09:20:17.016Z,2.73
2023-03-30T09:22:46.645Z,2.53
2023-03-30T09:25:17.311Z,2.50
2023-03-30T09:27:55.665Z,2.20
2023-03-30T09:30:29.273Z,2.57
2023-03-30T09:33:01.897Z,2.70
2023-03-30T09:35:41.796Z,3.07
2023-03-30T09:38:13.142Z,1.97
2023-03-30T09:41:06.479Z,2.57
2023-03-30T09:43:42.024Z,2.20
2023-03-30T09:46:10.131Z,2.63
2023-03-30T09:48:42.532Z,2.00
2023-03-30T09:51:18.876Z,3.00
2023-03-30T09:53:49.873Z,1.97
2023-03-30T09:56:26.267Z,2.23
2023-03-30T09:58:55.889Z,1.93
2023-03-30T10:01:35.884Z,1.90
2023-03-30T10:04:09.993Z,2.47
2023-03-30T10:06:40.692Z,2.10
2023-03-30T10:09:13.118Z,1.93
2023-03-30T10:11:44.279Z,1.97
2023-03-30T10:14:29.963Z,2.03
2023-03-30T10:16:59.300Z,1.93
2023-03-30T10:19:28.045Z,2.07
2023-03-30T10:21:58.841Z,2.13
2023-03-30T10:24:29.446Z,1.70
2023-03-30T10:26:58.837Z,2.30
2023-03-30T10:29:30.809Z,1.87
2023-03-30T10:32:03.047Z,2.43
2023-03-30T10:34:37.375Z,2.13
2023-03-30T10:37:08.469Z,1.90
2023-03-30T10:39:37.242Z,1.90
2023-03-30T10:42:08.145Z,1.83
2023-03-30T10:44:44.256Z,1.97
2023-03-30T10:47:39.808Z,2.37
2023-03-30T10:50:17.005Z,2.07
2023-03-30T10:52:59.199Z,1.97
2023-03-30T10:55:35.570Z,2.10
2023-03-30T10:58:14.078Z,1.87
2023-03-30T11:01:01.829Z,1.90
2023-03-30T11:03:32.758Z,1.80
2023-03-30T11:06:07.288Z,2.17
2023-03-30T11:08:39.353Z,2.00
2023-03-30T11:11:12.616Z,1.70
2023-03-30T11:13:44.013Z,2.00
2023-03-30T11:16:17.470Z,1.60
2023-03-30T11:18:53.487Z,1.70
2023-03-30T11:21:25.852Z,1.50
2023-03-30T11:23:56.287Z,2.90
2023-03-30T11:26:33.417Z,2.03
2023-03-30T11:29:08.049Z,2.10
2023-03-30T11:31:49.855Z,1.70
2023-03-30T11:34:27.951Z,2.43
2023-03-30T11:37:02.242Z,1.70
2023-03-30T11:39:33.860Z,1.67
2023-03-30T11:42:16.603Z,1.87
2023-03-30T11:44:44.823Z,1.80
2023-03-30T11:47:33.213Z,2.40
2023-03-30T11:50:13.534Z,1.97
2023-03-30T11:52:50.482Z,1.80
2023-03-30T11:55:31.883Z,1.70
2023-03-30T11:58:10.621Z,2.20
2023-03-30T12:00:52.576Z,2.03
2023-03-30T12:03:38.004Z,2.47
2023-03-30T12:06:19.329Z,1.73
2023-03-30T12:09:01.033Z,2.33
2023-03-30T12:11:36.443Z,1.63
2023-03-30T12:14:09.010Z,1.67
2023-03-30T12:16:46.822Z,1.87
2023-03-30T12:19:22.177Z,1.93
2023-03-30T12:21:56.426Z,1.87
2023-03-30T12:24:30.532Z,1.90
2023-03-30T12:27:05.368Z,1.63
2023-03-30T12:30:02.267Z,1.67
2023-03-30T12:32:35.858Z,2.00
2023-03-30T12:35:43.744Z,1.83
2023-03-30T12:38:19.222Z,1.70
2023-03-30T12:40:56.485Z,1.90
2023-03-30T12:43:32.968Z,1.75
2023-03-30T12:46:14.085Z,1.73
2023-03-30T12:48:53.441Z,1.93
2023-03-30T12:51:36.481Z,2.00
2023-03-30T12:54:21.700Z,2.17
2023-03-30T12:56:57.093Z,1.60
2023-03-30T12:59:51.041Z,2.27
2023-03-30T13:02:57.559Z,1.80
2023-03-30T13:05:30.064Z,2.05
2023-03-30T13:08:05.177Z,2.20
2023-03-30T13:10:44.048Z,2.20
2023-03-30T13:13:24.039Z,2.00
2023-03-30T13:15:54.730Z,1.80
2023-03-30T13:18:35.024Z,1.90
2023-03-30T13:21:17.772Z,2.00
2023-03-30T13:24:05.326Z,1.67
2023-03-30T13:26:42.989Z,2.10
2023-03-30T13:29:14.304Z,2.42
2023-03-30T13:31:56.571Z,2.10
2023-03-30T13:34:34.108Z,2.00
2023-03-30T13:37:08.756Z,2.35
2023-03-30T13:39:43.205Z,2.10
2023-03-30T13:42:43.478Z,2.22
2023-03-30T13:45:23.458Z,2.20
2023-03-30T13:48:01.752Z,1.85
2023-03-30T13:50:31.996Z,3.00
2023-03-30T13:53:04.035Z,3.00
2023-03-30T13:55:36.761Z,2.15
2023-03-30T13:58:07.430Z,2.95
2023-03-30T14:00:45.239Z,1.98
2023-03-30T14:03:35.134Z,2.33
2023-03-30T14:06:08.494Z,2.08
2023-03-30T14:08:38.524Z,2.35
2023-03-30T14:11:15.840Z,1.90
2023-03-30T14:13:45.752Z,2.10
2023-03-30T14:16:20.965Z,2.25
2023-03-30T14:18:49.653Z,2.10
2023-03-30T14:21:20.691Z,2.20
2023-03-30T14:23:52.491Z,2.50
2023-03-30T14:26:26.388Z,2.40
2023-03-30T14:28:56.505Z,1.95
2023-03-30T14:31:27.545Z,2.28
2023-03-30T14:33:55.872Z,2.20
2023-03-30T14:36:24.297Z,2.38
2023-03-30T14:38:54.880Z,2.30
2023-03-30T14:41:27.583Z,2.00
2023-03-30T14:43:57.972Z,1.85
2023-03-30T14:46:29.495Z,2.40
2023-03-30T14:48:58.751Z,2.30
2023-03-30T14:51:28.856Z,2.00
2023-03-30T14:53:57.776Z,2.42
2023-03-30T14:56:28.104Z,2.05
2023-03-30T14:58:57.177Z,1.90
2023-03-30T15:01:31.528Z,2.00
2023-03-30T15:04:02.784Z,2.20
2023-03-30T15:06:31.828Z,2.03
2023-03-30T15:09:04.851Z,1.98
2023-03-30T15:11:35.891Z,1.88
2023-03-30T15:14:09.682Z,1.83
2023-03-30T15:16:38.690Z,2.10
2023-03-30T15:19:12.512Z,1.90
2023-03-30T15:21:41.151Z,2.20
2023-03-30T15:24:13.911Z,1.48
2023-03-30T15:26:46.818Z,1.13
2023-03-30T15:29:16.775Z,1.10
2023-03-30T15:31:45.379Z,0.90
2023-03-30T15:34:18.140Z,0.97
2023-03-30T15:36:53.616Z,1.10
2023-03-30T15:39:24.132Z,0.80
2023-03-30T15:42:01.878Z,0.87
2023-03-30T15:44:30.054Z,1.03
2023-03-30T15:46:59.352Z,0.87
2023-03-30T15:49:33.550Z,1.00
2023-03-30T15:52:05.151Z,0.90
2023-03-30T15:54:39.559Z,0.93
2023-03-30T15:57:19.308Z,0.80
2023-03-30T15:59:50.397Z,1.07
2023-03-30T16:02:21.001Z,1.13
2023-03-30T16:04:50.188Z,1.13
2023-03-30T16:07:19.989Z,0.90
2023-03-30T16:09:49.024Z,0.90
2023-03-30T16:12:20.322Z,1.40
2023-03-30T16:14:49.240Z,0.90
2023-03-30T16:17:18.132Z,3.63
2023-03-30T16:19:46.332Z,1.50
2023-03-30T16:22:15.718Z,2.23
2023-03-30T16:24:44.727Z,1.13
2023-03-30T16:27:14.099Z,1.20
2023-03-30T16:29:43.445Z,2.93
2023-03-30T16:32:11.495Z,1.73
2023-03-30T16:34:42.924Z,1.77
2023-03-30T16:37:11.979Z,1.20
2023-03-30T16:39:40.664Z,1.10
2023-03-30T16:42:08.674Z,1.07
2023-03-30T16:44:36.793Z,1.27
2023-03-30T16:47:07.298Z,1.10
2023-03-30T16:49:35.430Z,1.10
2023-03-30T16:52:03.424Z,1.20
2023-03-30T16:54:32.939Z,1.07
2023-03-30T16:57:01.680Z,1.20
2023-03-30T16:59:31.805Z,1.03
2023-03-30T17:02:00.283Z,1.30
2023-03-30T17:04:29.703Z,1.33
2023-03-30T17:06:58.342Z,1.20
2023-03-30T17:09:27.166Z,1.20
2023-03-30T17:11:55.240Z,0.97
2023-03-30T17:14:24.347Z,1.00
2023-03-30T17:16:52.362Z,1.37
2023-03-30T17:19:20.393Z,1.87
2023-03-30T17:21:50.284Z,1.87
2023-03-30T17:24:18.643Z,1.40
2023-03-30T17:26:46.765Z,1.00
2023-03-30T17:29:14.746Z,1.10
2023-03-30T17:31:45.687Z,1.30
2023-03-30T17:34:14.595Z,1.50
2023-03-30T17:36:42.684Z,2.43
2023-03-30T17:39:14.198Z,1.70
2023-03-30T17:41:42.331Z,1.60
2023-03-30T17:44:10.391Z,1.70
2023-03-30T17:46:39.117Z,1.20
2023-03-30T17:49:17.093Z,1.10
2023-03-30T17:51:45.082Z,1.00
2023-03-30T17:54:14.736Z,0.73
2023-03-30T17:56:42.790Z,1.00
2023-03-30T17:59:11.924Z,0.93
2023-03-30T18:01:40.179Z,0.90
2023-03-30T18:04:09.171Z,1.07
2023-03-30T18:06:37.340Z,0.80
2023-03-30T18:09:07.575Z,1.13
2023-03-30T18:11:36.959Z,0.90
2023-03-30T18:14:05.009Z,1.00
2023-03-30T18:16:33.220Z,1.27
2023-03-30T18:19:02.295Z,1.50
2023-03-30T18:21:30.339Z,1.40
2023-03-30T18:23:58.326Z,2.00
2023-03-30T18:26:27.033Z,1.20
2023-03-30T18:28:56.448Z,1.63
2023-03-30T18:31:24.488Z,1.40
2023-03-30T18:33:53.674Z,1.40
2023-03-30T18:36:22.781Z,1.40
2023-03-30T18:38:51.323Z,1.40
2023-03-30T18:41:19.398Z,1.40
2023-03-30T18:43:47.497Z,1.60
2023-03-30T18:46:17.492Z,1.70
2023-03-30T18:48:47.212Z,1.80
2023-03-30T18:51:15.181Z,1.60
2023-03-30T18:53:43.162Z,1.77
2023-03-30T18:56:13.680Z,1.67
2023-03-30T18:58:42.939Z,1.43
2023-03-30T19:01:12.819Z,1.70
2023-03-30T19:03:42.777Z,1.40
2023-03-30T19:06:14.032Z,1.47
2023-03-30T19:08:43.517Z,1.70
2023-03-30T19:11:14.290Z,1.40
2023-03-30T19:13:42.278Z,1.83
2023-03-30T19:16:11.242Z,1.30
2023-03-30T19:18:39.947Z,1.37
2023-03-30T19:21:12.566Z,1.60
2023-03-30T19:23:40.531Z,1.53
2023-03-30T19:26:08.498Z,1.30
2023-03-30T19:28:36.609Z,1.13
2023-03-30T19:31:06.722Z,1.50
2023-03-30T19:33:34.927Z,1.57
2023-03-30T19:36:03.129Z,1.50
2023-03-30T19:38:32.604Z,1.30
2023-03-30T19:41:01.287Z,1.53
2023-03-30T19:43:29.662Z,1.30
2023-03-30T19:45:58.049Z,1.80
2023-03-30T19:48:27.299Z,1.30
2023-03-30T19:50:55.326Z,1.60
2023-03-30T19:53:23.740Z,1.17
2023-03-30T19:55:53.108Z,1.20
2023-03-30T19:58:21.121Z,1.20
2023-03-30T20:00:49.595Z,1.40
2023-03-30T20:03:17.791Z,1.23
2023-03-30T20:05:50.666Z,1.00
2023-03-30T20:08:24.213Z,1.10
2023-03-30T20:10:55.634Z,1.33
2023-03-30T20:13:24.601Z,1.37
2023-03-30T20:15:56.205Z,1.30
2023-03-30T20:18:24.382Z,1.10
2023-03-30T20:20:52.650Z,1.30
2023-03-30T20:23:20.979Z,1.10
2023-03-30T20:25:49.404Z,1.20
2023-03-30T20:28:19.048Z,1.13
2023-03-30T20:30:47.103Z,1.90
2023-03-30T20:33:15.281Z,1.30
2023-03-30T20:35:43.468Z,1.07
2023-03-30T20:38:11.479Z,1.67
2023-03-30T20:40:39.474Z,1.33
2023-03-30T20:43:10.162Z,1.30
2023-03-30T20:45:48.122Z,1.37
2023-03-30T20:48:25.993Z,1.43
2023-03-30T20:50:55.366Z,1.20
2023-03-30T20:53:23.802Z,1.60
2023-03-30T20:55:51.872Z,1.60
2023-03-30T20:58:22.209Z,1.20
2023-03-30T21:00:53.049Z,1.40
2023-03-30T21:03:26.026Z,1.63
2023-03-30T21:06:00.759Z,2.13
2023-03-30T21:08:29.108Z,0.97
2023-03-30T21:10:57.099Z,2.07
2023-03-30T21:13:25.457Z,1.37
2023-03-30T21:15:58.601Z,1.30
2023-03-30T21:18:27.292Z,1.50
2023-03-30T21:20:55.725Z,1.50
2023-03-30T21:23:27.983Z,1.23
2023-03-30T21:25:58.677Z,1.10
2023-03-30T21:28:28.562Z,1.23
2023-03-30T21:30:58.381Z,1.37
2023-03-30T21:33:28.086Z,1.10
2023-03-30T21:35:57.745Z,1.40
2023-03-30T21:38:27.081Z,1.03
2023-03-30T21:41:00.007Z,1.07
2023-03-30T21:43:29.840Z,1.20
2023-03-30T21:46:01.139Z,1.30
2023-03-30T21:48:30.886Z,1.20
2023-03-30T21:51:00.019Z,1.10
2023-03-30T21:53:28.221Z,1.10
2023-03-30T21:55:56.550Z,1.07
2023-03-30T21:58:24.846Z,1.20
2023-03-30T22:01:04.978Z,1.00
2023-03-30T22:03:40.842Z,0.97
2023-03-30T22:06:11.273Z,1.27
2023-03-30T22:08:39.664Z,1.00
2023-03-30T22:11:12.677Z,1.07
2023-03-30T22:13:41.015Z,0.93
2023-03-30T22:16:12.610Z,0.90
2023-03-30T22:18:43.050Z,1.20
2023-03-30T22:21:15.256Z,0.90
2023-03-30T22:23:43.312Z,0.90
2023-03-30T22:26:11.949Z,1.00
2023-03-30T22:28:40.430Z,1.10
2023-03-30T22:31:09.026Z,1.00
2023-03-30T22:33:37.090Z,0.80
2023-03-30T22:36:14.966Z,0.73
2023-03-30T22:38:43.187Z,0.80
2023-03-30T22:41:11.291Z,1.00
2023-03-30T22:43:39.558Z,0.80
2023-03-30T22:46:08.123Z,1.00
2023-03-30T22:48:36.565Z,1.00
2023-03-30T22:51:08.177Z,0.83
2023-03-30T22:53:38.203Z,0.80
2023-03-30T22:56:07.575Z,0.93
2023-03-30T22:58:36.474Z,1.17
2023-03-30T23:01:10.125Z,0.83
2023-03-30T23:03:38.330Z,0.87
2023-03-30T23:06:09.282Z,0.90
2023-03-30T23:08:39.209Z,0.60
2023-03-30T23:11:08.345Z,1.20
2023-03-30T23:13:38.281Z,0.60
2023-03-30T23:16:08.139Z,0.97
2023-03-30T23:18:36.603Z,0.90
2023-03-30T23:21:06.830Z,1.23
2023-03-30T23:23:37.399Z,0.90
2023-03-30T23:26:09.876Z,0.77
2023-03-30T23:28:39.982Z,0.90
2023-03-30T23:31:08.892Z,0.90
2023-03-30T23:33:36.935Z,0.80
2023-03-30T23:36:06.151Z,0.90
2023-03-30T23:38:34.388Z,0.97
2023-03-30T23:41:03.774Z,1.00
2023-03-30T23:43:31.773Z,0.80
2023-03-30T23:46:00.019Z,0.73
2023-03-30T23:48:28.131Z,1.07
2023-03-30T23:50:57.555Z,0.87
2023-03-30T23:53:26.623Z,0.80
2023-03-30T23:55:55.155Z,0.97
2023-03-30T23:58:25.357Z,0.80
